EZY36VJ EGGD-LFMN
Flight info
| Callsign | EZY36VJ |
|---|---|
| Flight time | N/A |
| Altitude | 33000 |
| Route | HAWFA L607 ALHAD UN859 VAPID L18 MID UL612 VEULE DCT KOTAP DCT KETEX DCT KOTIS DCT KUKOR DCT UTUVA DCT LERGA DCT LIQID DCT LATAM DCT TUNUR DCT NISAR |
| Aircraft | A320/M-SDE3FGHIRWY/LB1 |
Departure
| Time | 2026-05-05 19:31 |
|---|---|
| Airport | Bristol Airport (EGGD) |
Arrival
| Time | N/A |
|---|---|
| Airport | Nice-Côte d'Azur Airport (LFMN) |
| Time | Latitude | Longitude | Altitude | Speed | Heading |
|---|---|---|---|---|---|
| 2026-05-05 19:07 | 51.38523 | -2.71078 | 666 ft | 0 kts | 356° |
| 2026-05-05 19:21 | 51.38514 | -2.71078 | 612 ft | 4 kts | 356° |
| 2026-05-05 19:21 | 51.38491 | -2.71075 | 612 ft | 2 kts | 356° |
| 2026-05-05 19:22 | 51.38469 | -2.71068 | 620 ft | 4 kts | 312° |
| 2026-05-05 19:22 | 51.38462 | -2.71035 | 623 ft | 3 kts | 266° |
| 2026-05-05 19:22 | 51.38462 | -2.71022 | 618 ft | 1 kts | 266° |
| 2026-05-05 19:24 | 51.38460 | -2.71071 | 615 ft | 10 kts | 266° |
| 2026-05-05 19:24 | 51.38456 | -2.71184 | 615 ft | 12 kts | 267° |
| 2026-05-05 19:24 | 51.38452 | -2.71329 | 618 ft | 14 kts | 267° |
| 2026-05-05 19:25 | 51.38445 | -2.71504 | 614 ft | 18 kts | 266° |
| 2026-05-05 19:25 | 51.38436 | -2.71727 | 606 ft | 22 kts | 266° |
| 2026-05-05 19:25 | 51.38432 | -2.71957 | 606 ft | 21 kts | 271° |
| 2026-05-05 19:25 | 51.38426 | -2.72192 | 612 ft | 21 kts | 265° |
| 2026-05-05 19:26 | 51.38418 | -2.72418 | 611 ft | 20 kts | 266° |
| 2026-05-05 19:26 | 51.38409 | -2.72644 | 620 ft | 22 kts | 266° |
| 2026-05-05 19:26 | 51.38398 | -2.72906 | 605 ft | 25 kts | 266° |
| 2026-05-05 19:26 | 51.38389 | -2.73128 | 607 ft | 4 kts | 266° |
| 2026-05-05 19:27 | 51.38389 | -2.73142 | 607 ft | 0 kts | 266° |
| 2026-05-05 19:29 | 51.38387 | -2.73193 | 609 ft | 15 kts | 266° |
| 2026-05-05 19:29 | 51.38289 | -2.73339 | 618 ft | 21 kts | 181° |
| 2026-05-05 19:29 | 51.38216 | -2.73226 | 626 ft | 9 kts | 87° |
| 2026-05-05 19:29 | 51.38216 | -2.73212 | 628 ft | 0 kts | 86° |
| 2026-05-05 19:30 | 51.38218 | -2.73174 | 632 ft | 17 kts | 86° |
| 2026-05-05 19:30 | 51.38246 | -2.72508 | 630 ft | 101 kts | 86° |
| 2026-05-05 19:30 | 51.38306 | -2.70981 | 636 ft | 166 kts | 84° |
| 2026-05-05 19:31 | 51.38365 | -2.69089 | 1269 ft | 179 kts | 84° |
| 2026-05-05 19:31 | 51.38428 | -2.67073 | 2170 ft | 183 kts | 84° |
| 2026-05-05 19:31 | 51.38493 | -2.64986 | 2634 ft | 197 kts | 84° |
| 2026-05-05 19:31 | 51.38568 | -2.62664 | 2903 ft | 220 kts | 84° |
| 2026-05-05 19:32 | 51.38652 | -2.60085 | 3244 ft | 244 kts | 85° |
| 2026-05-05 19:32 | 51.38789 | -2.57299 | 3859 ft | 255 kts | 75° |
| 2026-05-05 19:32 | 51.39639 | -2.54849 | 4597 ft | 257 kts | 39° |
| 2026-05-05 19:32 | 51.41142 | -2.53283 | 5422 ft | 260 kts | 28° |
| 2026-05-05 19:33 | 51.42739 | -2.51838 | 5875 ft | 265 kts | 28° |
| 2026-05-05 19:33 | 51.44354 | -2.50395 | 5995 ft | 266 kts | 28° |
| 2026-05-05 19:33 | 51.45956 | -2.48910 | 6011 ft | 265 kts | 30° |
| 2026-05-05 19:33 | 51.47527 | -2.47371 | 6011 ft | 265 kts | 31° |
| 2026-05-05 19:34 | 51.49097 | -2.45799 | 6015 ft | 265 kts | 32° |
| 2026-05-05 19:34 | 51.50584 | -2.44060 | 6017 ft | 266 kts | 45° |
| 2026-05-05 19:34 | 51.51579 | -2.41606 | 6020 ft | 269 kts | 69° |
| 2026-05-05 19:35 | 51.51688 | -2.35541 | 7346 ft | 279 kts | 96° |
| 2026-05-05 19:35 | 51.51480 | -2.32420 | 8134 ft | 282 kts | 95° |
| 2026-05-05 19:35 | 51.51268 | -2.29254 | 8894 ft | 287 kts | 95° |
| 2026-05-05 19:35 | 51.51051 | -2.26044 | 9646 ft | 292 kts | 96° |
| 2026-05-05 19:36 | 51.50826 | -2.22775 | 10297 ft | 300 kts | 95° |
| 2026-05-05 19:36 | 51.50587 | -2.19303 | 10507 ft | 324 kts | 95° |
| 2026-05-05 19:36 | 51.50331 | -2.15588 | 10683 ft | 346 kts | 96° |
| 2026-05-05 19:36 | 51.50055 | -2.11634 | 10904 ft | 365 kts | 96° |
| 2026-05-05 19:37 | 51.49764 | -2.07494 | 11473 ft | 371 kts | 96° |
| 2026-05-05 19:37 | 51.49475 | -2.03414 | 12139 ft | 374 kts | 96° |
| 2026-05-05 19:37 | 51.49179 | -1.99247 | 12804 ft | 378 kts | 96° |
| 2026-05-05 19:37 | 51.48880 | -1.95034 | 13432 ft | 382 kts | 96° |
| 2026-05-05 19:38 | 51.48579 | -1.90783 | 14073 ft | 385 kts | 96° |
| 2026-05-05 19:38 | 51.48274 | -1.86516 | 14677 ft | 386 kts | 96° |
| 2026-05-05 19:38 | 51.47964 | -1.82218 | 15287 ft | 388 kts | 96° |
| 2026-05-05 19:38 | 51.47649 | -1.77911 | 15911 ft | 390 kts | 97° |
| 2026-05-05 19:39 | 51.47331 | -1.73576 | 16526 ft | 392 kts | 97° |
| 2026-05-05 19:39 | 51.47009 | -1.69222 | 17135 ft | 394 kts | 97° |
| 2026-05-05 19:39 | 51.46523 | -1.64889 | 17733 ft | 396 kts | 102° |
| 2026-05-05 19:39 | 51.45933 | -1.60552 | 18328 ft | 398 kts | 102° |
| 2026-05-05 19:40 | 51.45337 | -1.56195 | 18825 ft | 401 kts | 102° |
| 2026-05-05 19:40 | 51.44735 | -1.51808 | 19255 ft | 406 kts | 102° |
| 2026-05-05 19:40 | 51.44126 | -1.47371 | 19683 ft | 410 kts | 103° |
| 2026-05-05 19:40 | 51.43512 | -1.42880 | 20100 ft | 414 kts | 103° |
| 2026-05-05 19:41 | 51.42891 | -1.38351 | 20509 ft | 418 kts | 103° |
| 2026-05-05 19:41 | 51.42258 | -1.33778 | 20920 ft | 422 kts | 103° |
| 2026-05-05 19:41 | 51.41618 | -1.29181 | 21328 ft | 425 kts | 103° |
| 2026-05-05 19:41 | 51.40882 | -1.24572 | 21726 ft | 428 kts | 110° |
| 2026-05-05 19:42 | 51.39665 | -1.20226 | 22122 ft | 430 kts | 121° |
| 2026-05-05 19:42 | 51.37945 | -1.16297 | 22511 ft | 432 kts | 132° |
| 2026-05-05 19:42 | 51.35784 | -1.12953 | 22885 ft | 433 kts | 143° |
| 2026-05-05 19:42 | 51.33251 | -1.10310 | 23253 ft | 434 kts | 154° |
| 2026-05-05 19:43 | 51.30539 | -1.08285 | 23568 ft | 437 kts | 156° |
| 2026-05-05 19:43 | 51.27819 | -1.06081 | 23875 ft | 440 kts | 149° |
| 2026-05-05 19:43 | 51.25330 | -1.03223 | 24208 ft | 442 kts | 140° |
| 2026-05-05 19:43 | 51.23155 | -0.99742 | 24540 ft | 444 kts | 130° |
| 2026-05-05 19:44 | 51.21276 | -0.95813 | 24866 ft | 446 kts | 127° |
| 2026-05-05 19:44 | 51.19416 | -0.91853 | 25212 ft | 446 kts | 128° |
| 2026-05-05 19:44 | 51.17542 | -0.87899 | 25551 ft | 447 kts | 128° |
| 2026-05-05 19:44 | 51.15658 | -0.83946 | 25862 ft | 448 kts | 128° |
| 2026-05-05 19:45 | 51.13768 | -0.79991 | 26160 ft | 449 kts | 128° |
| 2026-05-05 19:45 | 51.11871 | -0.76026 | 26444 ft | 451 kts | 128° |
| 2026-05-05 19:45 | 51.09963 | -0.72042 | 26723 ft | 452 kts | 128° |
| 2026-05-05 19:45 | 51.08054 | -0.68055 | 26992 ft | 453 kts | 128° |
| 2026-05-05 19:46 | 51.06053 | -0.64177 | 27241 ft | 454 kts | 135° |
| 2026-05-05 19:46 | 51.03725 | -0.60795 | 27486 ft | 453 kts | 143° |
| 2026-05-05 19:46 | 51.01139 | -0.57936 | 27722 ft | 454 kts | 147° |
| 2026-05-05 19:46 | 50.98516 | -0.55150 | 27951 ft | 455 kts | 147° |